Time;durP1;ratioP1;P1;durP2;ratioP2;P2;SDS_P1;SDS_P2;PMS_P1;PMS_P2;Temp;Humidity;BMP_temperature;BMP_pressure;BME280_temperature;BME280_humidity;BME280_pressure;Samples;Min_cycle;Max_cycle;Signal;HPM_P1;HPM_P2
2023/12/26 00:01:34;;;;;;;9.03;8.10;;;9.00;94.80;;;;;;5032564;28;20173;-92
2023/12/26 00:04:00;;;;;;;9.73;7.97;;;9.00;94.90;;;;;;5032964;28;20205;-91
2023/12/26 00:06:25;;;;;;;11.67;8.00;;;9.10;94.90;;;;;;5030930;28;20181;-92
2023/12/26 00:08:52;;;;;;;5.73;4.20;;;9.00;94.80;;;;;;5026499;28;20245;-92
2023/12/26 00:11:19;;;;;;;8.20;4.50;;;9.00;94.70;;;;;;5023908;28;20196;-93
2023/12/26 00:13:46;;;;;;;6.23;4.17;;;9.00;94.50;;;;;;5005043;28;20217;-91
2023/12/26 00:16:12;;;;;;;7.00;5.00;;;9.00;94.50;;;;;;5024216;28;20209;-92
2023/12/26 00:18:38;;;;;;;5.17;4.13;;;9.00;94.60;;;;;;5028750;28;20185;-92
2023/12/26 00:21:05;;;;;;;7.23;4.60;;;9.00;94.60;;;;;;5029312;28;20203;-92
2023/12/26 00:23:31;;;;;;;5.43;3.73;;;9.00;94.60;;;;;;5029351;28;20231;-92
2023/12/26 00:25:58;;;;;;;4.87;3.70;;;9.00;94.60;;;;;;5029383;28;20207;-92
2023/12/26 00:28:36;;;;;;;6.13;3.27;;;9.00;94.60;;;;;;5032006;28;20229;-92
2023/12/26 00:31:02;;;;;;;9.20;4.20;;;8.90;94.60;;;;;;5031655;28;20220;-92
2023/12/26 00:33:28;;;;;;;7.33;3.13;;;8.90;94.60;;;;;;5031368;28;20209;-92
2023/12/26 00:35:58;;;;;;;8.87;3.90;;;8.90;94.50;;;;;;5030598;28;20275;-92
2023/12/26 00:38:26;;;;;;;7.23;3.80;;;8.90;94.50;;;;;;5031895;28;20176;-92
2023/12/26 00:40:51;;;;;;;4.50;3.05;;;8.80;94.40;;;;;;5031825;28;19945;-91
2023/12/26 00:43:20;;;;;;;5.23;3.30;;;8.80;94.40;;;;;;5029286;28;20174;-92
2023/12/26 00:45:47;;;;;;;5.73;3.00;;;8.80;94.40;;;;;;4998555;28;20653;-90
2023/12/26 00:48:15;;;;;;;5.57;3.17;;;8.90;94.30;;;;;;5031454;28;20216;-92
2023/12/26 00:50:42;;;;;;;6.43;3.47;;;8.90;94.20;;;;;;5011974;28;20212;-92
2023/12/26 00:53:09;;;;;;;5.60;3.17;;;8.90;94.20;;;;;;5028601;28;20188;-93
2023/12/26 00:55:40;;;;;;;6.23;3.00;;;8.80;94.20;;;;;;5027451;28;20233;-92
2023/12/26 00:58:20;;;;;;;4.70;2.60;;;8.80;94.20;;;;;;5029037;28;20197;-92
2023/12/26 01:00:47;;;;;;;4.10;2.93;;;8.90;94.20;;;;;;5028305;28;20247;-92
2023/12/26 01:03:15;;;;;;;4.70;2.70;;;8.80;94.20;;;;;;5031448;28;20183;-92
2023/12/26 01:05:42;;;;;;;4.23;2.40;;;8.80;94.30;;;;;;5031030;28;20208;-92
2023/12/26 01:08:29;;;;;;;7.97;2.83;;;8.80;94.30;;;;;;5029063;28;20547;-93
2023/12/26 01:10:54;;;;;;;7.17;6.57;;;8.80;94.30;;;;;;5028117;28;20197;-91
2023/12/26 01:13:22;;;;;;;8.00;7.20;;;8.80;94.40;;;;;;5030713;28;20221;-92
2023/12/26 01:15:49;;;;;;;6.73;6.23;;;8.80;94.50;;;;;;5027631;28;20201;-92
2023/12/26 01:18:16;;;;;;;7.57;6.20;;;8.80;94.50;;;;;;5030640;28;20285;-93
2023/12/26 01:20:42;;;;;;;7.87;6.17;;;8.80;94.60;;;;;;5027726;28;20201;-92
2023/12/26 01:23:08;;;;;;;6.13;5.53;;;8.80;94.70;;;;;;5027584;28;20201;-92
2023/12/26 01:25:35;;;;;;;5.73;5.30;;;8.80;94.70;;;;;;5027433;28;20185;-92
2023/12/26 01:28:04;;;;;;;6.27;5.67;;;8.80;94.70;;;;;;5027225;28;20278;-92
2023/12/26 01:30:30;;;;;;;9.13;5.93;;;8.80;94.70;;;;;;5029072;28;20205;-92
2023/12/26 01:32:55;;;;;;;6.13;5.63;;;8.80;94.80;;;;;;5027170;28;20188;-90
2023/12/26 01:35:21;;;;;;;5.70;5.20;;;8.80;94.80;;;;;;5025801;28;20232;-90
2023/12/26 01:37:47;;;;;;;7.20;5.77;;;8.80;94.80;;;;;;5023729;28;20184;-93
2023/12/26 01:40:13;;;;;;;6.57;5.60;;;8.80;94.70;;;;;;5024059;28;20193;-92
2023/12/26 01:42:42;;;;;;;7.50;6.13;;;8.80;94.70;;;;;;5023218;28;20258;-92
2023/12/26 01:45:08;;;;;;;6.97;3.00;;;8.80;94.80;;;;;;5023335;28;20184;-92
2023/12/26 01:47:44;;;;;;;4.97;3.10;;;8.80;94.80;;;;;;5022548;28;20268;-93
2023/12/26 01:50:15;;;;;;;7.43;5.60;;;8.80;94.90;;;;;;5023354;28;20200;-92
2023/12/26 01:52:50;;;;;;;6.30;5.80;;;8.80;94.90;;;;;;5023827;28;20256;-93
2023/12/26 01:55:20;;;;;;;7.57;5.93;;;8.80;94.90;;;;;;5022829;28;20212;-92
2023/12/26 01:57:54;;;;;;;3.33;2.50;;;8.80;94.90;;;;;;5023524;28;20220;-93
2023/12/26 02:00:31;;;;;;;3.40;2.30;;;8.80;94.90;;;;;;5023131;28;20222;-92
2023/12/26 02:02:59;;;;;;;5.77;5.27;;;8.90;94.90;;;;;;5025863;28;20198;-92
2023/12/26 02:05:37;;;;;;;6.00;5.60;;;8.90;94.90;;;;;;5025218;28;20189;-91
2023/12/26 02:08:03;;;;;;;5.30;4.00;;;9.00;94.80;;;;;;5009460;28;20185;-92
2023/12/26 02:10:30;;;;;;;3.10;2.60;;;9.00;94.80;;;;;;5026093;28;20197;-92
2023/12/26 02:13:00;;;;;;;4.30;2.23;;;8.90;94.70;;;;;;5008233;28;20244;-90
2023/12/26 02:15:26;;;;;;;2.77;2.53;;;9.00;94.70;;;;;;5025730;28;20208;-92
2023/12/26 02:18:08;;;;;;;2.90;2.33;;;9.00;94.70;;;;;;5024984;28;20188;-92
2023/12/26 02:20:35;;;;;;;2.30;2.20;;;9.00;94.70;;;;;;5025780;28;20260;-91
2023/12/26 02:23:02;;;;;;;3.60;2.20;;;9.00;94.70;;;;;;5027167;28;20174;-92
2023/12/26 02:25:38;;;;;;;2.53;2.10;;;9.00;94.70;;;;;;5030336;28;20223;-91
2023/12/26 02:28:06;;;;;;;2.60;2.40;;;9.00;94.80;;;;;;5028500;28;20249;-92
2023/12/26 02:30:33;;;;;;;6.20;2.80;;;9.00;94.80;;;;;;5027804;28;20201;-92
2023/12/26 02:33:02;;;;;;;4.20;2.70;;;9.00;94.90;;;;;;5030425;28;20181;-92
2023/12/26 02:35:29;;;;;;;4.50;2.83;;;9.00;95.00;;;;;;5025517;28;20204;-92
2023/12/26 02:37:56;;;;;;;3.43;2.77;;;9.00;95.00;;;;;;5012801;28;20196;-92
2023/12/26 02:40:41;;;;;;;2.63;2.43;;;8.90;95.10;;;;;;5030361;28;20197;-91
2023/12/26 02:43:10;;;;;;;4.17;2.60;;;9.00;95.20;;;;;;5028907;28;20185;-92
2023/12/26 02:45:37;;;;;;;4.57;2.03;;;9.00;95.30;;;;;;5030737;28;20245;-92
2023/12/26 02:48:04;;;;;;;2.03;1.93;;;9.00;95.40;;;;;;5030064;28;20177;-92
2023/12/26 02:50:31;;;;;;;3.87;2.30;;;9.00;95.30;;;;;;5030030;28;20195;-92
2023/12/26 02:52:58;;;;;;;5.30;2.63;;;9.00;95.30;;;;;;5029024;28;20177;-92
2023/12/26 02:55:29;;;;;;;3.43;2.10;;;9.00;95.30;;;;;;5029084;28;20257;-92
2023/12/26 02:57:54;;;;;;;1.60;1.50;;;8.90;95.40;;;;;;5024749;28;20657;-91
2023/12/26 03:00:20;;;;;;;4.43;2.17;;;9.00;95.40;;;;;;5021613;28;20204;-91
2023/12/26 03:02:46;;;;;;;2.93;2.23;;;9.00;95.30;;;;;;5019904;28;20184;-91
2023/12/26 03:05:12;;;;;;;2.40;2.20;;;9.10;95.00;;;;;;5017495;28;20185;-92
2023/12/26 03:07:38;;;;;;;2.53;2.33;;;9.10;94.90;;;;;;5017997;28;20181;-92
2023/12/26 03:10:07;;;;;;;5.20;4.90;;;9.10;94.70;;;;;;5014333;28;20201;-92
2023/12/26 03:12:33;;;;;;;5.80;5.50;;;9.20;94.60;;;;;;5014283;28;20626;-92
2023/12/26 03:14:59;;;;;;;5.67;5.27;;;9.20;94.40;;;;;;5014639;28;20209;-91
2023/12/26 03:17:25;;;;;;;5.67;5.27;;;9.20;94.20;;;;;;5014594;28;20279;-91
2023/12/26 03:19:52;;;;;;;6.20;5.70;;;9.20;94.20;;;;;;5015382;28;20228;-92
2023/12/26 03:22:20;;;;;;;6.10;5.60;;;9.20;94.10;;;;;;5016051;28;20649;-92
2023/12/26 03:24:50;;;;;;;5.93;5.53;;;9.20;94.00;;;;;;5015275;28;20205;-93
2023/12/26 03:27:17;;;;;;;5.90;5.40;;;9.20;93.90;;;;;;5014681;28;20184;-91
2023/12/26 03:29:45;;;;;;;8.03;6.17;;;9.20;93.90;;;;;;5015382;28;20204;-92
2023/12/26 03:32:13;;;;;;;6.10;5.60;;;9.20;93.90;;;;;;5014271;28;20181;-93
2023/12/26 03:34:39;;;;;;;6.53;6.03;;;9.10;93.90;;;;;;5016296;28;20181;-92
2023/12/26 03:37:05;;;;;;;7.10;6.47;;;9.20;93.80;;;;;;5014373;28;25069;-91
2023/12/26 03:39:32;;;;;;;6.83;6.20;;;9.10;93.90;;;;;;5014658;28;20190;-92
2023/12/26 03:41:58;;;;;;;7.70;7.00;;;9.10;93.90;;;;;;4997739;28;20193;-92
2023/12/26 03:44:24;;;;;;;3.10;2.80;;;9.10;93.90;;;;;;5014206;28;20181;-91
2023/12/26 03:46:50;;;;;;;4.57;3.50;;;9.10;93.90;;;;;;5014889;28;20231;-92
2023/12/26 03:49:16;;;;;;;8.53;6.77;;;9.10;93.70;;;;;;5014299;28;20209;-91
2023/12/26 03:51:41;;;;;;;6.40;5.90;;;9.20;93.60;;;;;;5014837;28;20256;-91
2023/12/26 03:54:07;;;;;;;10.20;6.70;;;9.20;93.40;;;;;;5016797;28;20188;-92
2023/12/26 03:56:34;;;;;;;4.20;2.83;;;9.20;93.50;;;;;;5019730;28;20205;-92
2023/12/26 03:59:00;;;;;;;8.60;2.70;;;9.20;93.30;;;;;;5002207;28;20573;-92
2023/12/26 04:01:26;;;;;;;6.80;6.17;;;9.20;93.10;;;;;;5018156;28;20189;-91
2023/12/26 04:03:53;;;;;;;7.70;7.00;;;9.20;92.90;;;;;;5020058;28;20589;-91
2023/12/26 04:06:20;;;;;;;10.03;7.20;;;9.20;92.70;;;;;;5018844;28;20659;-93
2023/12/26 04:08:46;;;;;;;12.63;3.40;;;9.30;92.70;;;;;;5019093;28;20188;-91
2023/12/26 04:11:12;;;;;;;4.20;3.00;;;9.20;92.80;;;;;;5019660;28;20645;-92
2023/12/26 04:13:39;;;;;;;;;;;9.20;92.20;;;;;;5021682;28;19917;-91
2023/12/26 04:16:08;;;;;;;;;;;9.20;92.10;;;;;;5021190;28;19917;-91
2023/12/26 04:18:34;;;;;;;;;;;9.20;91.90;;;;;;5023135;28;19905;-92
2023/12/26 04:21:00;;;;;;;;;;;9.20;91.50;;;;;;5023391;28;19960;-93
2023/12/26 04:23:25;;;;;;;10.05;4.50;;;9.20;91.20;;;;;;5022139;28;19909;-91
2023/12/26 04:25:53;;;;;;;12.83;5.43;;;9.10;91.30;;;;;;5025620;28;20185;-93
2023/12/26 04:28:19;;;;;;;9.40;5.47;;;9.00;90.10;;;;;;5025642;28;20185;-92
2023/12/26 04:30:45;;;;;;;12.03;5.47;;;9.10;89.50;;;;;;5021734;28;20284;-92
2023/12/26 04:33:12;;;;;;;11.63;5.97;;;9.10;89.50;;;;;;5022991;28;20177;-92
2023/12/26 04:35:38;;;;;;;16.10;8.10;;;9.00;89.60;;;;;;5025314;28;20202;-92
2023/12/26 04:38:04;;;;;;;17.33;7.77;;;9.00;88.50;;;;;;5023058;28;20185;-92
2023/12/26 04:40:30;;;;;;;16.07;7.53;;;8.90;88.80;;;;;;5025504;28;20297;-91
2023/12/26 04:43:00;;;;;;;20.13;8.20;;;8.90;88.70;;;;;;5024992;28;20193;-91
2023/12/26 04:45:26;;;;;;;18.97;7.33;;;8.80;88.60;;;;;;5026059;28;20186;-91
2023/12/26 04:47:52;;;;;;;18.37;9.20;;;8.80;88.80;;;;;;5023378;28;20256;-91
2023/12/26 04:50:17;;;;;;;18.90;9.30;;;8.70;88.20;;;;;;5025678;28;20208;-91
2023/12/26 04:52:43;;;;;;;16.33;8.13;;;8.80;87.90;;;;;;5029321;28;20177;-91
2023/12/26 04:55:09;;;;;;;19.97;9.40;;;8.70;88.10;;;;;;5027964;28;20205;-92
2023/12/26 04:57:35;;;;;;;15.73;9.53;;;8.70;88.30;;;;;;5028671;28;20200;-91
2023/12/26 05:00:01;;;;;;;23.37;9.30;;;8.60;87.90;;;;;;5017468;28;20273;-91
2023/12/26 05:02:26;;;;;;;18.80;9.93;;;8.60;88.10;;;;;;5033345;28;20237;-92
2023/12/26 05:04:52;;;;;;;21.03;9.67;;;8.60;87.90;;;;;;5031918;28;20185;-92
2023/12/26 05:07:19;;;;;;;28.80;20.57;;;8.60;88.10;;;;;;5033451;28;20231;-92
2023/12/26 05:09:45;;;;;;;28.47;20.37;;;8.50;88.10;;;;;;5033425;28;20261;-91
2023/12/26 05:12:11;;;;;;;24.07;16.50;;;8.50;88.10;;;;;;5029473;28;20197;-92
2023/12/26 05:14:38;;;;;;;24.17;15.73;;;8.40;88.10;;;;;;5029822;28;20184;-91
2023/12/26 05:17:03;;;;;;;24.17;15.73;;;8.40;88.20;;;;;;5030515;28;20241;-92
2023/12/26 05:19:29;;;;;;;18.60;14.83;;;8.40;88.20;;;;;;5028055;28;20665;-92
2023/12/26 05:21:56;;;;;;;24.73;15.03;;;8.30;88.30;;;;;;5028932;28;20181;-91
2023/12/26 05:24:22;;;;;;;20.83;13.33;;;8.30;88.50;;;;;;5028294;28;20180;-91
2023/12/26 05:26:48;;;;;;;23.50;13.97;;;8.30;88.30;;;;;;5028276;28;20216;-92
2023/12/26 05:29:13;;;;;;;25.40;13.50;;;8.30;88.60;;;;;;5027445;28;20276;-92
2023/12/26 05:31:39;;;;;;;21.90;13.20;;;8.30;88.90;;;;;;5027203;28;20204;-91
2023/12/26 05:34:07;;;;;;;20.50;12.77;;;8.30;89.00;;;;;;5026897;28;20590;-91
2023/12/26 05:36:33;;;;;;;19.00;12.67;;;8.30;89.00;;;;;;5028175;28;20240;-92
2023/12/26 05:38:59;;;;;;;19.67;13.00;;;8.30;89.20;;;;;;5028293;28;20180;-92
2023/12/26 05:41:25;;;;;;;27.90;13.33;;;8.30;89.10;;;;;;5026906;28;20189;-91
2023/12/26 05:43:51;;;;;;;18.37;7.57;;;8.30;89.30;;;;;;5030069;28;20260;-93
2023/12/26 05:46:18;;;;;;;16.00;8.37;;;8.30;89.30;;;;;;5030128;28;20186;-92
2023/12/26 05:48:44;;;;;;;20.20;7.70;;;8.30;89.20;;;;;;5029178;28;20173;-93
2023/12/26 05:51:10;;;;;;;22.20;13.50;;;8.30;89.10;;;;;;5025426;28;20232;-91
2023/12/26 05:53:36;;;;;;;18.53;14.47;;;8.20;89.10;;;;;;5028270;28;20193;-91
2023/12/26 05:56:07;;;;;;;24.37;8.50;;;8.10;89.40;;;;;;5033082;28;20209;-92
2023/12/26 05:58:33;;;;;;;32.43;8.40;;;8.20;89.40;;;;;;5034491;28;20231;-92
2023/12/26 06:00:59;;;;;;;30.47;11.43;;;8.20;89.30;;;;;;5127200;22;20237;-92
2023/12/26 06:03:25;;;;;;;25.43;13.90;;;8.20;88.90;;;;;;5050475;28;20157;-92
2023/12/26 06:05:51;;;;;;;21.20;14.07;;;8.20;88.70;;;;;;5049886;28;20180;-91
2023/12/26 06:08:17;;;;;;;24.07;8.87;;;8.10;88.60;;;;;;5047387;28;20202;-91
2023/12/26 06:10:43;;;;;;;25.10;8.93;;;8.20;88.50;;;;;;5047265;28;20264;-92
2023/12/26 06:13:08;;;;;;;20.67;13.77;;;8.10;88.60;;;;;;5053400;28;20181;-92
2023/12/26 06:15:34;;;;;;;27.90;14.43;;;8.10;88.90;;;;;;5048146;28;20208;-92
2023/12/26 06:18:00;;;;;;;21.37;15.40;;;8.20;89.10;;;;;;5047479;28;20215;-92
2023/12/26 06:20:30;;;;;;;18.07;9.03;;;8.20;88.90;;;;;;5049215;28;20232;-91
2023/12/26 06:22:57;;;;;;;24.50;9.07;;;8.30;88.70;;;;;;5038600;28;20235;-93
2023/12/26 06:25:26;;;;;;;21.23;8.63;;;8.20;88.60;;;;;;5053659;28;20640;-92
2023/12/26 06:27:52;;;;;;;24.73;9.37;;;8.30;88.30;;;;;;5051638;28;20185;-91
2023/12/26 06:30:18;;;;;;;26.67;10.37;;;8.30;88.20;;;;;;5048389;28;20246;-93
2023/12/26 06:32:44;;;;;;;23.67;10.03;;;8.30;87.90;;;;;;5053151;28;20667;-91
2023/12/26 06:35:10;;;;;;;29.83;10.73;;;8.30;87.80;;;;;;5050673;28;20204;-93
2023/12/26 06:37:36;;;;;;;36.93;11.13;;;8.30;87.80;;;;;;5049305;28;20172;-91
2023/12/26 06:40:02;;;;;;;21.23;9.57;;;8.40;87.90;;;;;;5048687;28;20263;-91
2023/12/26 06:42:29;;;;;;;28.43;9.53;;;8.40;87.70;;;;;;5050446;28;20177;-91
2023/12/26 06:44:55;;;;;;;24.10;9.33;;;8.40;87.90;;;;;;5048714;28;20183;-90
2023/12/26 06:47:21;;;;;;;20.37;8.83;;;8.30;88.20;;;;;;5051771;28;20204;-90
2023/12/26 06:49:53;;;;;;;25.27;8.87;;;8.40;88.20;;;;;;5050246;28;20192;-92
2023/12/26 06:52:19;;;;;;;20.83;8.70;;;8.40;88.10;;;;;;5052059;28;20161;-92
2023/12/26 06:54:48;;;;;;;27.77;8.77;;;8.30;88.10;;;;;;5048863;28;20183;-92
2023/12/26 06:57:22;;;;;;;20.90;9.00;;;8.30;87.90;;;;;;5047449;28;20165;-92
2023/12/26 06:59:48;;;;;;;12.87;8.87;;;8.40;87.50;;;;;;5045777;28;20192;-93
2023/12/26 07:02:15;;;;;;;15.23;8.43;;;8.40;87.10;;;;;;5048437;28;20184;-93
2023/12/26 07:05:03;;;;;;;18.57;8.87;;;8.40;87.20;;;;;;5043205;28;20184;-92
2023/12/26 07:07:29;;;;;;;28.77;9.40;;;8.40;87.10;;;;;;5049372;28;20181;-92
2023/12/26 07:09:56;;;;;;;20.30;8.97;;;8.50;87.20;;;;;;5050107;28;20203;-92
2023/12/26 07:12:22;;;;;;;16.37;8.07;;;8.50;87.00;;;;;;5052418;28;20183;-92
2023/12/26 07:14:49;;;;;;;20.53;14.87;;;8.40;87.40;;;;;;5050637;28;20172;-92
2023/12/26 07:17:15;;;;;;;18.43;13.93;;;8.40;87.40;;;;;;5051822;28;20204;-92
2023/12/26 07:19:44;;;;;;;22.90;15.17;;;8.30;87.50;;;;;;5048873;28;20192;-92
2023/12/26 07:22:12;;;;;;;17.03;14.83;;;8.30;87.20;;;;;;5032357;28;20193;-92
2023/12/26 07:24:41;;;;;;;25.50;15.20;;;8.40;86.90;;;;;;5051813;28;20260;-92
2023/12/26 07:27:07;;;;;;;26.97;16.33;;;8.30;87.30;;;;;;5052590;28;20190;-92
2023/12/26 07:29:33;;;;;;;23.90;13.90;;;8.30;87.40;;;;;;5057604;28;20248;-92
2023/12/26 07:32:00;;;;;;;31.17;14.73;;;8.30;87.60;;;;;;5056830;28;20174;-91
2023/12/26 07:34:27;;;;;;;15.37;13.63;;;8.30;87.30;;;;;;5053665;28;20191;-91
2023/12/26 07:36:53;;;;;;;19.00;12.80;;;8.30;87.50;;;;;;5055472;28;20207;-92
2023/12/26 07:39:20;;;;;;;22.27;14.60;;;8.30;87.70;;;;;;5052548;28;20192;-91
2023/12/26 07:41:49;;;;;;;14.93;13.47;;;8.30;87.60;;;;;;5020187;28;20248;-91
2023/12/26 07:44:18;;;;;;;17.13;12.57;;;8.30;88.00;;;;;;5052972;28;20181;-91
2023/12/26 07:46:47;;;;;;;22.27;13.60;;;8.20;88.20;;;;;;5054185;28;20165;-92
2023/12/26 07:49:15;;;;;;;18.80;13.50;;;8.30;87.70;;;;;;5056674;28;20280;-93
2023/12/26 07:51:41;;;;;;;24.20;14.40;;;8.30;87.80;;;;;;5097295;22;20276;-92
2023/12/26 07:54:08;;;;;;;15.40;8.33;;;8.30;88.00;;;;;;5056025;28;20189;-93
2023/12/26 07:56:37;;;;;;;13.23;7.37;;;8.30;88.30;;;;;;5035847;28;20213;-92
2023/12/26 07:59:04;;;;;;;17.83;12.30;;;8.30;88.10;;;;;;5031901;28;20169;-92
2023/12/26 08:01:34;;;;;;;15.97;10.67;;;8.30;87.90;;;;;;5033502;28;20145;-93
2023/12/26 08:04:00;;;;;;;20.73;10.27;;;8.30;88.20;;;;;;5032976;28;20188;-92
2023/12/26 08:06:26;;;;;;;24.80;9.07;;;8.20;88.60;;;;;;5030012;28;20524;-93
2023/12/26 08:08:51;;;;;;;18.90;8.13;;;8.30;88.70;;;;;;5053372;28;20216;-92
2023/12/26 08:11:17;;;;;;;13.00;10.40;;;8.20;88.40;;;;;;5049776;28;20220;-92
2023/12/26 08:13:44;;;;;;;16.87;11.37;;;8.20;88.70;;;;;;5035833;28;20169;-92
2023/12/26 08:16:09;;;;;;;28.43;12.33;;;8.10;89.00;;;;;;5036694;28;20209;-92
2023/12/26 08:18:35;;;;;;;11.83;5.90;;;8.20;88.70;;;;;;5036746;28;20174;-92
2023/12/26 08:21:02;;;;;;;13.23;7.43;;;8.20;88.50;;;;;;5052635;28;20209;-93
2023/12/26 08:23:28;;;;;;;19.53;7.20;;;8.20;88.30;;;;;;5054320;28;20169;-93
2023/12/26 08:25:54;;;;;;;11.53;7.03;;;8.20;88.50;;;;;;5052743;28;20277;-92
2023/12/26 08:28:20;;;;;;;13.00;8.17;;;8.20;88.00;;;;;;5052126;28;20178;-92
2023/12/26 08:30:46;;;;;;;24.47;8.10;;;8.20;88.00;;;;;;5052644;28;20203;-93
2023/12/26 08:33:14;;;;;;;16.83;7.57;;;8.20;87.90;;;;;;5051215;28;20181;-92
2023/12/26 08:35:41;;;;;;;24.37;8.33;;;8.30;88.10;;;;;;5050100;28;20205;-92
2023/12/26 08:38:06;;;;;;;13.60;8.03;;;8.20;88.20;;;;;;5051351;28;20174;-92
2023/12/26 08:40:32;;;;;;;13.27;7.53;;;8.20;87.90;;;;;;5049221;28;20193;-92
2023/12/26 08:42:58;;;;;;;13.03;7.40;;;8.20;88.00;;;;;;5050715;28;20347;-92
2023/12/26 08:45:23;;;;;;;17.37;8.37;;;8.20;87.90;;;;;;5050208;28;20189;-92
2023/12/26 08:47:52;;;;;;;10.37;6.53;;;8.30;87.40;;;;;;5050965;28;20178;-92
2023/12/26 08:50:18;;;;;;;15.67;7.80;;;8.30;87.40;;;;;;5048263;28;20201;-92
2023/12/26 08:52:44;;;;;;;10.80;6.90;;;8.20;88.20;;;;;;5049863;28;20212;-92
2023/12/26 08:55:10;;;;;;;15.50;5.85;;;8.10;89.40;;;;;;5034659;28;20096;-92
2023/12/26 08:57:35;;;;;;;16.80;6.57;;;8.00;89.90;;;;;;5049176;28;20177;-92
2023/12/26 09:00:01;;;;;;;15.60;5.63;;;7.90;90.30;;;;;;5046720;28;25059;-91
2023/12/26 09:02:28;;;;;;;20.83;9.70;;;8.00;90.00;;;;;;5042789;28;20180;-92
2023/12/26 09:04:53;;;;;;;12.67;6.77;;;8.00;89.60;;;;;;5041074;28;20170;-92
2023/12/26 09:07:19;;;;;;;10.53;7.10;;;8.10;89.20;;;;;;5047066;28;20181;-92
2023/12/26 09:09:45;;;;;;;19.63;7.47;;;8.10;89.20;;;;;;5049355;28;20181;-93
2023/12/26 09:12:10;;;;;;;13.80;5.60;;;8.20;89.10;;;;;;5053183;28;20173;-93
2023/12/26 09:14:37;;;;;;;27.33;8.60;;;8.20;89.00;;;;;;5047181;28;20177;-93
2023/12/26 09:17:03;;;;;;;17.80;7.33;;;8.30;89.10;;;;;;5046911;28;20205;-93
2023/12/26 09:19:28;;;;;;;12.70;10.73;;;8.20;89.00;;;;;;5046012;28;20205;-92
2023/12/26 09:21:54;;;;;;;19.67;10.43;;;8.30;88.90;;;;;;5030547;28;20213;-92
2023/12/26 09:24:20;;;;;;;15.73;10.50;;;8.30;88.50;;;;;;5032230;28;20197;-92
2023/12/26 09:26:46;;;;;;;16.20;9.70;;;8.30;88.70;;;;;;5033656;28;20188;-92
2023/12/26 09:29:11;;;;;;;16.13;10.57;;;8.30;88.50;;;;;;5049558;28;20217;-93
2023/12/26 09:31:37;;;;;;;19.97;10.43;;;8.30;88.60;;;;;;5032270;28;20204;-93
2023/12/26 09:34:03;;;;;;;15.73;6.63;;;8.20;88.70;;;;;;5035201;28;20241;-92
2023/12/26 09:36:28;;;;;;;12.50;6.17;;;8.30;88.50;;;;;;5050313;28;20231;-93
2023/12/26 09:38:54;;;;;;;11.87;10.87;;;8.20;88.50;;;;;;5051463;28;20177;-94
2023/12/26 09:41:26;;;;;;;18.83;11.67;;;8.10;88.30;;;;;;5035053;28;20185;-93
2023/12/26 09:43:53;;;;;;;12.00;10.87;;;8.10;88.30;;;;;;5031508;28;20176;-93
2023/12/26 09:46:19;;;;;;;10.77;5.40;;;8.10;88.70;;;;;;5033890;28;20169;-93
2023/12/26 09:48:45;;;;;;;14.87;6.07;;;8.10;89.40;;;;;;5052354;28;20249;-92
2023/12/26 09:51:20;;;;;;;11.50;8.13;;;8.10;89.30;;;;;;5043986;28;20205;-92
2023/12/26 09:53:52;;;;;;;16.00;7.43;;;8.00;90.10;;;;;;5046217;28;20231;-92
2023/12/26 09:56:18;;;;;;;9.60;5.97;;;8.00;90.80;;;;;;5036584;28;20193;-93
2023/12/26 09:58:44;;;;;;;14.67;5.27;;;7.90;91.20;;;;;;5047800;28;20535;-92
2023/12/26 10:01:13;;;;;;;22.40;7.43;;;8.00;91.20;;;;;;5046500;28;20187;-93
2023/12/26 10:03:39;;;;;;;14.10;7.50;;;8.00;91.10;;;;;;5048465;28;20177;-92
2023/12/26 10:06:06;;;;;;;8.53;7.57;;;8.10;90.60;;;;;;5055330;28;20204;-92
2023/12/26 10:08:32;;;;;;;20.53;7.57;;;8.20;90.00;;;;;;5055394;28;20162;-93
2023/12/26 10:10:58;;;;;;;17.63;5.77;;;8.20;90.10;;;;;;5054801;28;20216;-93
2023/12/26 10:13:24;;;;;;;27.70;7.63;;;8.20;89.90;;;;;;5054347;28;20209;-92
2023/12/26 10:15:50;;;;;;;20.90;6.10;;;8.30;89.50;;;;;;5050275;28;20205;-91
2023/12/26 10:18:19;;;;;;;15.70;6.47;;;8.30;89.40;;;;;;5048564;28;20204;-92
2023/12/26 10:20:45;;;;;;;20.37;7.07;;;8.30;89.00;;;;;;5050889;28;20220;-93
2023/12/26 10:23:11;;;;;;;7.20;5.73;;;8.30;89.30;;;;;;5050822;28;20181;-93
2023/12/26 10:25:37;;;;;;;10.63;6.00;;;8.30;88.30;;;;;;5050147;28;20161;-92
2023/12/26 10:28:03;;;;;;;19.70;6.67;;;8.20;88.60;;;;;;5049202;28;20184;-92
2023/12/26 10:30:29;;;;;;;13.77;7.87;;;8.30;88.60;;;;;;5046556;28;20212;-92
2023/12/26 10:33:01;;;;;;;17.37;6.83;;;8.20;88.80;;;;;;5048591;28;20184;-93
2023/12/26 10:35:27;;;;;;;9.40;5.83;;;8.20;88.60;;;;;;5048257;28;20189;-93
2023/12/26 10:37:53;;;;;;;9.03;5.50;;;8.10;88.90;;;;;;5046508;28;20187;-91
2023/12/26 10:40:19;;;;;;;19.27;7.13;;;8.10;88.80;;;;;;5043588;28;20212;-91
2023/12/26 10:42:49;;;;;;;16.40;6.87;;;8.10;89.10;;;;;;5041874;28;20178;-92
2023/12/26 10:45:20;;;;;;;24.57;7.63;;;8.10;89.10;;;;;;5043657;28;20176;-93
2023/12/26 10:47:49;;;;;;;13.90;6.73;;;8.10;89.20;;;;;;5045417;28;20170;-92
2023/12/26 10:50:18;;;;;;;19.93;7.10;;;8.00;89.80;;;;;;5052787;28;20213;-92
2023/12/26 10:53:16;;;;;;;19.87;7.27;;;7.90;89.40;;;;;;5052156;28;20191;-93
2023/12/26 10:55:45;;;;;;;19.53;6.00;;;7.80;90.20;;;;;;5046504;28;20300;-92
2023/12/26 10:58:18;;;;;;;20.47;7.53;;;7.70;90.90;;;;;;5047579;28;20173;-92
2023/12/26 13:51:55;;;;;;;5.53;3.23;;;6.80;93.40;;;;;;5014368;28;20610;-89
2023/12/26 13:54:58;;;;;;;4.93;3.40;;;6.80;93.40;;;;;;5013075;28;20177;-88
2023/12/26 13:58:01;;;;;;;6.47;5.17;;;6.80;93.50;;;;;;5014260;28;20599;-88
2023/12/26 14:01:04;;;;;;;8.17;5.30;;;6.80;93.40;;;;;;5015420;28;20200;-90
2023/12/26 14:04:07;;;;;;;5.93;3.50;;;6.80;93.50;;;;;;5013666;28;20181;-89
2023/12/26 14:07:10;;;;;;;8.63;3.57;;;6.70;93.60;;;;;;5014371;28;20613;-90
2023/12/26 14:10:13;;;;;;;12.43;3.67;;;6.80;93.60;;;;;;5014207;28;20185;-89
2023/12/26 14:13:16;;;;;;;8.73;3.90;;;6.80;93.50;;;;;;5013789;28;20181;-91
2023/12/26 14:16:21;;;;;;;14.23;5.50;;;6.80;93.50;;;;;;5013596;28;20258;-90
2023/12/26 14:19:24;;;;;;;8.40;3.80;;;6.80;93.40;;;;;;5012687;28;20173;-90
2023/12/26 14:22:27;;;;;;;10.80;4.30;;;6.80;93.40;;;;;;5013011;28;20239;-90
2023/12/26 14:24:52;;;;;;;16.23;4.53;;;6.80;93.40;;;;;;5012725;28;20192;-90
2023/12/26 14:27:19;;;;;;;6.53;3.90;;;6.80;93.30;;;;;;5029442;28;20181;-88
2023/12/26 14:29:44;;;;;;;12.97;4.63;;;6.80;93.40;;;;;;5029066;28;20193;-90
2023/12/26 14:32:10;;;;;;;10.90;4.20;;;6.80;93.30;;;;;;5029842;28;20197;-90
2023/12/26 14:34:35;;;;;;;9.57;5.47;;;6.80;93.30;;;;;;5029302;28;20223;-91
2023/12/26 14:37:01;;;;;;;14.33;6.00;;;6.80;93.20;;;;;;5028627;28;20208;-90
2023/12/26 14:39:26;;;;;;;14.00;5.67;;;6.80;93.10;;;;;;5013817;28;20560;-90
2023/12/26 14:41:51;;;;;;;11.20;4.13;;;6.80;93.10;;;;;;5028858;28;20177;-90
2023/12/26 14:44:17;;;;;;;10.57;4.70;;;6.80;93.00;;;;;;5013560;28;20188;-89
2023/12/26 14:46:42;;;;;;;13.80;5.50;;;6.80;93.00;;;;;;5012388;28;20590;-90
2023/12/26 14:49:08;;;;;;;15.30;6.33;;;6.80;92.90;;;;;;5029051;28;20288;-91
2023/12/26 14:51:33;;;;;;;16.37;6.40;;;6.80;92.70;;;;;;5029071;28;20262;-91
2023/12/26 14:53:59;;;;;;;12.87;6.07;;;6.80;92.50;;;;;;5029191;28;20185;-90
2023/12/26 14:56:26;;;;;;;10.97;6.13;;;6.80;92.40;;;;;;5038722;28;20208;-92
2023/12/26 14:58:51;;;;;;;12.48;5.80;;;6.80;92.40;;;;;;5157536;22;20485;-92
2023/12/26 15:01:17;;;;;;;13.67;5.73;;;6.80;92.30;;;;;;5054002;28;20192;-93
2023/12/26 15:03:42;;;;;;;12.87;6.13;;;6.80;92.30;;;;;;5053907;28;20169;-92
2023/12/26 15:06:16;;;;;;;10.07;4.40;;;6.80;92.30;;;;;;5027896;28;20180;-92
2023/12/26 15:08:42;;;;;;;12.43;4.67;;;6.80;92.30;;;;;;5038623;28;20196;-89
2023/12/26 15:11:17;;;;;;;11.73;6.23;;;6.70;91.80;;;;;;5033974;28;20224;-91
2023/12/26 15:13:43;;;;;;;11.80;6.87;;;6.70;91.60;;;;;;5033554;28;20182;-90
2023/12/26 15:16:19;;;;;;;12.90;6.70;;;6.60;91.50;;;;;;5035853;28;20295;-91
2023/12/26 15:18:45;;;;;;;13.30;5.30;;;6.60;91.30;;;;;;5033376;28;20173;-90
2023/12/26 15:21:11;;;;;;;12.10;5.33;;;6.60;91.30;;;;;;5032440;28;20177;-90
2023/12/26 15:23:37;;;;;;;8.83;6.47;;;6.60;91.70;;;;;;5031803;28;20173;-91
2023/12/26 15:26:10;;;;;;;17.37;8.07;;;6.60;91.80;;;;;;5031992;28;20640;-91
2023/12/26 15:28:36;;;;;;;11.90;6.27;;;6.60;91.50;;;;;;5031733;28;20183;-90
2023/12/26 15:31:02;;;;;;;12.37;5.17;;;6.50;91.40;;;;;;5032396;28;20579;-90
2023/12/26 15:33:27;;;;;;;6.17;4.13;;;6.50;91.40;;;;;;5033604;28;20207;-90
2023/12/26 15:35:53;;;;;;;9.23;7.20;;;6.60;91.50;;;;;;5031620;28;20582;-89
2023/12/26 15:38:19;;;;;;;10.63;6.73;;;6.50;91.40;;;;;;5032130;28;20644;-91
2023/12/26 15:40:44;;;;;;;10.90;6.33;;;6.50;91.50;;;;;;5034812;28;20192;-91
2023/12/26 15:43:10;;;;;;;10.27;6.20;;;6.50;91.60;;;;;;5032925;28;20562;-90
2023/12/26 15:45:36;;;;;;;11.00;4.80;;;6.50;91.60;;;;;;5033475;28;20659;-91
2023/12/26 15:48:01;;;;;;;14.53;5.60;;;6.50;91.50;;;;;;5033635;28;20248;-91